Time;durP1;ratioP1;P1;durP2;ratioP2;P2;SDS_P1;SDS_P2;PMS_P1;PMS_P2;Temp;Humidity;BMP_temperature;BMP_pressure;BME280_temperature;BME280_humidity;BME280_pressure;Samples;Min_cycle;Max_cycle;Signal;HPM_P1;HPM_P2
2024/03/15 00:00:11;;;;;;;10.20;7.30;;;9.60;99.90;;;;;;4943886;28;20034;-44
2024/03/15 00:02:37;;;;;;;8.57;6.70;;;9.60;99.90;;;;;;4945743;28;20684;-51
2024/03/15 00:05:03;;;;;;;7.95;7.13;;;9.60;99.90;;;;;;4967965;28;20128;-45
2024/03/15 00:07:29;;;;;;;10.32;6.82;;;9.50;99.90;;;;;;4944972;28;20025;-46
2024/03/15 00:09:55;;;;;;;9.55;7.78;;;9.60;99.90;;;;;;4944684;28;20482;-51
2024/03/15 00:12:20;;;;;;;10.63;6.50;;;9.60;99.90;;;;;;4978758;28;20042;-45
2024/03/15 00:14:46;;;;;;;10.43;6.78;;;9.60;99.90;;;;;;4942395;28;20030;-50
2024/03/15 00:17:13;;;;;;;8.52;7.03;;;9.60;99.90;;;;;;4965219;28;20099;-47
2024/03/15 00:19:40;;;;;;;9.60;6.30;;;9.60;99.90;;;;;;4942923;28;20018;-44
2024/03/15 00:22:06;;;;;;;8.23;7.30;;;9.60;99.90;;;;;;4940007;28;20096;-49
2024/03/15 00:24:32;;;;;;;10.30;7.20;;;9.70;99.90;;;;;;4979285;28;20034;-48
2024/03/15 00:26:59;;;;;;;9.80;7.13;;;9.70;99.90;;;;;;4943428;28;20100;-46
2024/03/15 00:29:28;;;;;;;9.80;7.00;;;9.70;99.90;;;;;;4934276;28;20398;-51
2024/03/15 00:31:57;;;;;;;10.63;7.80;;;9.70;99.90;;;;;;4964054;28;20068;-46
2024/03/15 00:34:23;;;;;;;10.63;8.13;;;9.70;99.90;;;;;;4936377;28;20477;-48
2024/03/15 00:36:49;;;;;;;11.68;7.65;;;9.70;99.90;;;;;;4962982;28;20402;-55
2024/03/15 00:39:16;;;;;;;10.55;7.43;;;9.70;99.90;;;;;;4949797;28;20038;-47
2024/03/15 00:41:42;;;;;;;9.90;7.35;;;9.80;99.90;;;;;;4942862;28;21284;-46
2024/03/15 00:44:08;;;;;;;7.65;6.53;;;9.80;99.90;;;;;;4962220;28;20458;-49
2024/03/15 00:46:33;;;;;;;11.13;7.68;;;9.80;99.90;;;;;;4929112;28;20022;-46
2024/03/15 00:48:59;;;;;;;9.80;6.88;;;9.80;99.90;;;;;;4932805;28;20490;-45
2024/03/15 00:51:25;;;;;;;10.25;7.15;;;9.80;99.90;;;;;;4987418;28;20046;-45
2024/03/15 00:53:51;;;;;;;10.38;7.10;;;9.80;99.90;;;;;;4947290;28;20026;-50
2024/03/15 00:56:17;;;;;;;7.95;6.75;;;9.80;99.90;;;;;;4956924;28;20387;-45
2024/03/15 00:58:43;;;;;;;10.70;7.20;;;9.90;99.90;;;;;;4942374;28;20438;-47
2024/03/15 01:01:10;;;;;;;10.07;7.28;;;9.90;99.90;;;;;;4938703;28;21452;-44
2024/03/15 01:03:36;;;;;;;9.55;7.10;;;9.90;99.90;;;;;;4971331;28;20034;-45
2024/03/15 01:06:02;;;;;;;10.85;6.30;;;9.80;99.90;;;;;;4928435;28;20029;-54
2024/03/15 01:08:31;;;;;;;10.55;6.78;;;9.80;99.90;;;;;;4921316;28;20030;-50
2024/03/15 01:10:57;;;;;;;9.20;6.47;;;9.80;99.90;;;;;;4956381;28;20030;-45
2024/03/15 01:13:24;;;;;;;8.73;6.22;;;9.80;99.90;;;;;;4928494;28;20026;-48
2024/03/15 01:15:50;;;;;;;8.23;7.40;;;9.80;99.90;;;;;;4955603;28;20033;-53
2024/03/15 01:18:16;;;;;;;8.27;6.53;;;9.80;99.90;;;;;;4943172;28;20065;-50
2024/03/15 01:20:42;;;;;;;9.43;6.35;;;9.70;99.90;;;;;;4923977;28;22014;-46
2024/03/15 01:23:08;;;;;;;10.13;7.43;;;9.70;99.90;;;;;;4948414;28;20538;-47
2024/03/15 01:25:38;;;;;;;10.85;7.13;;;9.70;99.90;;;;;;4918914;28;20075;-48
2024/03/15 01:28:05;;;;;;;11.68;7.72;;;9.70;99.90;;;;;;4932368;28;20083;-49
2024/03/15 01:30:30;;;;;;;8.77;6.90;;;9.70;99.90;;;;;;4985323;28;20504;-49
2024/03/15 01:32:56;;;;;;;12.40;8.23;;;9.70;99.90;;;;;;4929145;28;20030;-47
2024/03/15 01:35:34;;;;;;;10.88;7.80;;;9.70;99.90;;;;;;4937553;28;20448;-53
2024/03/15 01:38:02;;;;;;;8.70;7.15;;;9.70;99.90;;;;;;4949295;28;20126;-49
2024/03/15 01:40:32;;;;;;;11.25;7.32;;;9.70;99.90;;;;;;4919372;28;20033;-45
2024/03/15 01:42:58;;;;;;;8.48;7.13;;;9.70;99.90;;;;;;4905405;28;20492;-55
2024/03/15 01:45:23;;;;;;;9.63;7.40;;;9.70;99.90;;;;;;4958481;28;20030;-46
2024/03/15 01:47:49;;;;;;;9.40;6.82;;;9.70;99.90;;;;;;4913274;28;20497;-49
2024/03/15 01:50:16;;;;;;;10.48;7.32;;;9.70;99.90;;;;;;4940912;28;20109;-47
2024/03/15 01:52:42;;;;;;;10.18;7.50;;;9.70;99.90;;;;;;4902258;28;20083;-46
2024/03/15 01:55:10;;;;;;;10.75;7.20;;;9.70;99.90;;;;;;4906884;28;22344;-45
2024/03/15 01:57:37;;;;;;;8.45;7.18;;;9.70;99.90;;;;;;4961050;28;20053;-44
2024/03/15 02:00:06;;;;;;;9.65;7.15;;;9.60;99.90;;;;;;4906848;28;20034;-45
2024/03/15 02:02:33;;;;;;;12.27;7.40;;;9.60;99.90;;;;;;4913128;28;20450;-45
2024/03/15 02:04:59;;;;;;;10.30;7.68;;;9.60;99.90;;;;;;4941853;28;20038;-47
2024/03/15 02:07:27;;;;;;;8.57;6.88;;;9.60;99.90;;;;;;4896222;28;20104;-46
2024/03/15 02:09:57;;;;;;;8.10;6.60;;;9.60;99.90;;;;;;4946397;28;20497;-53
2024/03/15 02:12:25;;;;;;;9.65;7.82;;;9.60;99.90;;;;;;4971641;28;20025;-46
2024/03/15 02:14:50;;;;;;;8.55;6.72;;;9.60;99.90;;;;;;4912637;28;20030;-48
2024/03/15 02:17:16;;;;;;;10.02;7.20;;;9.50;99.90;;;;;;4940253;28;20044;-47
2024/03/15 02:19:44;;;;;;;10.02;7.32;;;9.50;99.90;;;;;;4911915;28;20035;-46
2024/03/15 02:22:13;;;;;;;9.48;7.28;;;9.40;99.90;;;;;;4895841;28;22304;-44
2024/03/15 02:24:40;;;;;;;11.82;7.20;;;9.40;99.90;;;;;;4953865;28;20518;-45
2024/03/15 02:27:13;;;;;;;8.10;6.93;;;9.40;99.90;;;;;;4887325;28;20029;-47
2024/03/15 02:29:42;;;;;;;7.70;6.78;;;9.30;99.90;;;;;;4904147;28;20061;-48
2024/03/15 02:32:07;;;;;;;10.60;6.68;;;9.30;99.90;;;;;;4938448;28;20038;-44
2024/03/15 02:34:34;;;;;;;8.73;6.78;;;9.30;99.90;;;;;;4906976;28;20025;-44
2024/03/15 02:37:01;;;;;;;8.10;6.70;;;9.20;99.90;;;;;;4883405;28;20110;-54
2024/03/15 02:39:26;;;;;;;11.50;7.22;;;9.20;99.90;;;;;;4951213;28;20048;-48
2024/03/15 02:41:53;;;;;;;7.43;6.68;;;9.20;99.90;;;;;;4914571;28;20034;-49
2024/03/15 02:44:19;;;;;;;9.57;7.78;;;9.10;99.90;;;;;;4935891;28;20038;-48
2024/03/15 02:46:45;;;;;;;8.27;7.20;;;9.00;99.90;;;;;;4895963;28;20544;-51
2024/03/15 02:49:11;;;;;;;9.50;6.75;;;9.00;99.90;;;;;;4917463;28;21464;-48
2024/03/15 02:51:36;;;;;;;8.80;6.63;;;9.00;99.90;;;;;;4980525;28;20022;-48
2024/03/15 02:54:02;;;;;;;8.60;7.00;;;9.00;99.90;;;;;;4886167;28;20120;-45
2024/03/15 02:56:28;;;;;;;12.02;7.45;;;9.00;99.90;;;;;;4899238;28;20148;-56
2024/03/15 02:58:54;;;;;;;8.95;7.25;;;8.90;99.90;;;;;;4936813;28;20034;-44
2024/03/15 03:01:20;;;;;;;9.25;7.00;;;8.90;99.90;;;;;;4899173;28;21350;-45
2024/03/15 03:03:45;;;;;;;10.00;7.43;;;8.80;99.90;;;;;;4969702;28;20144;-48
2024/03/15 03:06:11;;;;;;;12.40;7.65;;;8.80;99.90;;;;;;4917574;28;20307;-46
2024/03/15 03:08:37;;;;;;;10.50;8.57;;;8.80;99.90;;;;;;4920310;28;20077;-51
2024/03/15 03:11:06;;;;;;;12.00;7.97;;;8.70;99.90;;;;;;4937952;28;20061;-48
2024/03/15 03:13:33;;;;;;;8.73;7.10;;;8.70;99.90;;;;;;4892650;28;20057;-48
2024/03/15 03:16:00;;;;;;;9.32;7.25;;;8.70;99.90;;;;;;4930931;28;20552;-55
2024/03/15 03:18:28;;;;;;;9.45;6.90;;;8.60;99.90;;;;;;4947664;28;20057;-44
2024/03/15 03:20:57;;;;;;;11.93;7.35;;;8.60;99.90;;;;;;4919078;28;20038;-46
2024/03/15 03:23:28;;;;;;;9.18;7.15;;;8.60;99.90;;;;;;4917564;28;20131;-53
2024/03/15 03:25:54;;;;;;;9.63;7.32;;;8.60;99.90;;;;;;4926012;28;20547;-44
2024/03/15 03:28:20;;;;;;;10.10;7.20;;;8.50;99.90;;;;;;4884362;28;21430;-47
2024/03/15 03:30:46;;;;;;;10.95;7.75;;;8.50;99.90;;;;;;4975051;28;20478;-46
2024/03/15 03:33:13;;;;;;;9.85;7.15;;;8.50;99.90;;;;;;4888640;28;20029;-47
2024/03/15 03:35:39;;;;;;;10.40;7.80;;;8.50;99.90;;;;;;4967667;28;20414;-46
2024/03/15 03:38:06;;;;;;;9.77;7.78;;;8.40;99.90;;;;;;4993495;28;20125;-46
2024/03/15 03:40:33;;;;;;;10.63;7.57;;;8.40;99.90;;;;;;4946613;28;20072;-48
2024/03/15 03:43:01;;;;;;;9.10;7.60;;;8.40;99.90;;;;;;4971319;28;20042;-47
2024/03/15 03:45:27;;;;;;;8.63;6.95;;;8.40;99.90;;;;;;4972468;28;20060;-45
2024/03/15 03:47:55;;;;;;;9.82;7.90;;;8.40;99.90;;;;;;4965946;28;20105;-48
2024/03/15 03:50:22;;;;;;;9.93;7.53;;;8.40;99.90;;;;;;4984792;28;20026;-53
2024/03/15 03:52:48;;;;;;;10.35;8.25;;;8.40;99.90;;;;;;4997319;28;20610;-47
2024/03/15 03:55:16;;;;;;;11.50;7.97;;;8.40;99.90;;;;;;4982316;28;20621;-45
2024/03/15 03:57:43;;;;;;;9.52;7.47;;;8.40;99.90;;;;;;4959817;28;20026;-47
2024/03/15 04:00:16;;;;;;;10.25;7.88;;;8.40;99.90;;;;;;4965861;28;20045;-48
2024/03/15 04:02:48;;;;;;;11.23;7.68;;;8.30;99.90;;;;;;4947922;28;20083;-45
2024/03/15 04:05:15;;;;;;;10.82;7.57;;;8.40;99.90;;;;;;4988736;28;21812;-46
2024/03/15 04:07:41;;;;;;;10.73;7.78;;;8.40;99.90;;;;;;4983531;28;20537;-46
2024/03/15 04:10:09;;;;;;;12.30;8.10;;;8.40;99.90;;;;;;4949627;28;20477;-45
2024/03/15 04:12:35;;;;;;;10.40;8.15;;;8.40;99.90;;;;;;4950605;28;20077;-45
2024/03/15 04:15:05;;;;;;;12.30;7.78;;;8.40;99.90;;;;;;4940579;28;20026;-45
2024/03/15 04:17:35;;;;;;;10.40;8.10;;;8.40;99.90;;;;;;4936048;28;20049;-49
2024/03/15 04:20:00;;;;;;;11.85;8.73;;;8.30;99.90;;;;;;4984044;28;20030;-49
2024/03/15 04:22:26;;;;;;;9.80;7.75;;;8.40;99.90;;;;;;4980296;28;20037;-49
2024/03/15 04:24:52;;;;;;;11.50;8.05;;;8.40;99.90;;;;;;4959615;28;20045;-45
2024/03/15 04:27:18;;;;;;;11.65;7.90;;;8.40;99.90;;;;;;4965156;28;20095;-45
2024/03/15 04:29:44;;;;;;;9.18;7.95;;;8.40;99.90;;;;;;4955782;28;21578;-45
2024/03/15 04:32:10;;;;;;;10.52;8.63;;;8.40;99.90;;;;;;4981100;28;21994;-46
2024/03/15 04:34:40;;;;;;;11.32;8.48;;;8.40;99.90;;;;;;4991409;28;20044;-45
2024/03/15 04:37:10;;;;;;;10.57;8.88;;;8.40;99.90;;;;;;4949683;28;20045;-47
2024/03/15 04:39:36;;;;;;;10.88;8.48;;;8.40;99.90;;;;;;4983770;28;20556;-45
2024/03/15 04:42:06;;;;;;;12.18;7.97;;;8.40;99.90;;;;;;4982626;28;20034;-47
2024/03/15 04:44:33;;;;;;;10.45;8.93;;;8.40;99.90;;;;;;4979173;28;20041;-48
2024/03/15 04:47:00;;;;;;;10.52;8.70;;;8.50;99.90;;;;;;4973119;28;20026;-53
2024/03/15 04:49:26;;;;;;;13.95;8.88;;;8.40;99.90;;;;;;4995831;28;20040;-47
2024/03/15 04:51:52;;;;;;;12.25;8.82;;;8.50;99.90;;;;;;4973529;28;20030;-46
2024/03/15 04:54:18;;;;;;;10.77;7.80;;;8.50;99.90;;;;;;4978719;28;20036;-46
2024/03/15 04:56:46;;;;;;;10.40;8.65;;;8.50;99.90;;;;;;4971094;28;20030;-48
2024/03/15 04:59:12;;;;;;;9.60;8.32;;;8.50;99.90;;;;;;4966949;28;20192;-48
2024/03/15 05:01:38;;;;;;;12.80;8.85;;;8.50;99.90;;;;;;4993720;28;20037;-50
2024/03/15 05:04:03;;;;;;;10.45;7.85;;;8.50;99.90;;;;;;4962860;28;20030;-46
2024/03/15 05:06:30;;;;;;;10.85;7.97;;;8.50;99.90;;;;;;4967044;28;20083;-46
2024/03/15 05:08:58;;;;;;;11.43;8.68;;;8.40;99.90;;;;;;4977541;28;20041;-44
2024/03/15 05:11:24;;;;;;;10.60;7.93;;;8.40;99.90;;;;;;4971904;28;20033;-45
2024/03/15 05:13:49;;;;;;;10.38;8.63;;;8.40;99.90;;;;;;4977626;28;20034;-52
2024/03/15 05:16:15;;;;;;;9.75;8.55;;;8.40;99.90;;;;;;4986941;28;20140;-45
2024/03/15 05:18:41;;;;;;;10.57;8.93;;;8.40;99.90;;;;;;4963004;28;21518;-47
2024/03/15 05:21:07;;;;;;;10.23;8.52;;;8.30;99.90;;;;;;4970388;28;20041;-45
2024/03/15 05:23:32;;;;;;;13.13;9.57;;;8.30;99.90;;;;;;4958547;28;20120;-47
2024/03/15 05:25:58;;;;;;;11.88;10.30;;;8.30;99.90;;;;;;4959806;28;20582;-48
2024/03/15 05:28:23;;;;;;;13.60;9.48;;;8.30;99.90;;;;;;4988484;28;21034;-45
2024/03/15 05:30:49;;;;;;;13.48;9.48;;;8.30;99.90;;;;;;4959756;28;20099;-48
2024/03/15 05:33:14;;;;;;;10.38;8.73;;;8.30;99.90;;;;;;4972307;28;20037;-45
2024/03/15 05:35:41;;;;;;;12.32;8.95;;;8.30;99.90;;;;;;4957889;28;20057;-44
2024/03/15 05:38:09;;;;;;;11.55;9.70;;;8.20;99.90;;;;;;4956685;28;21108;-46
2024/03/15 05:40:35;;;;;;;10.98;8.75;;;8.30;99.90;;;;;;4985666;28;20026;-47
2024/03/15 05:43:01;;;;;;;12.55;8.77;;;8.30;99.90;;;;;;4952795;28;20041;-45
2024/03/15 05:45:26;;;;;;;12.00;9.93;;;8.30;99.90;;;;;;4951461;28;20025;-46
2024/03/15 05:47:52;;;;;;;13.05;9.25;;;8.30;99.90;;;;;;4970207;28;20105;-45
2024/03/15 05:50:17;;;;;;;13.38;10.73;;;8.40;99.90;;;;;;4954893;28;20033;-49
2024/03/15 05:52:43;;;;;;;14.70;9.98;;;8.40;99.90;;;;;;4984213;28;20026;-45
2024/03/15 05:55:09;;;;;;;14.30;10.18;;;8.50;99.90;;;;;;4951426;28;20045;-50
2024/03/15 05:57:34;;;;;;;12.57;9.95;;;8.50;99.90;;;;;;4948888;28;20037;-45
2024/03/15 06:00:12;;;;;;;15.90;10.15;;;8.50;99.90;;;;;;4967058;28;20045;-50
2024/03/15 06:02:38;;;;;;;12.90;9.23;;;8.50;99.90;;;;;;4950810;28;20037;-48
2024/03/15 06:05:05;;;;;;;11.80;9.00;;;8.60;99.90;;;;;;4947372;28;20053;-49
2024/03/15 06:07:30;;;;;;;12.35;9.55;;;8.60;99.90;;;;;;4980402;28;20022;-44
2024/03/15 06:09:56;;;;;;;13.65;9.68;;;8.70;99.90;;;;;;4949141;28;20453;-46
2024/03/15 06:12:27;;;;;;;11.95;10.05;;;8.70;99.90;;;;;;4963570;28;20445;-55
2024/03/15 06:14:53;;;;;;;13.63;10.10;;;8.70;99.90;;;;;;4965737;28;20041;-48
2024/03/15 06:17:19;;;;;;;13.55;10.68;;;8.80;99.90;;;;;;4948046;28;20037;-45
2024/03/15 06:19:45;;;;;;;14.90;11.38;;;8.80;99.90;;;;;;4978001;28;20030;-49
2024/03/15 06:22:11;;;;;;;12.82;10.18;;;8.90;99.90;;;;;;4947501;28;20371;-45
2024/03/15 06:24:37;;;;;;;12.52;9.77;;;8.90;99.90;;;;;;4944867;28;20088;-45
2024/03/15 06:27:05;;;;;;;16.63;10.93;;;8.90;99.90;;;;;;4970122;28;20030;-47
2024/03/15 06:29:34;;;;;;;13.70;10.45;;;8.90;99.90;;;;;;4948482;28;20025;-46
2024/03/15 06:32:02;;;;;;;15.05;10.80;;;9.00;99.90;;;;;;4945656;28;20034;-49
2024/03/15 06:34:31;;;;;;;13.63;10.70;;;9.00;99.90;;;;;;4982389;28;20036;-47
2024/03/15 06:36:59;;;;;;;15.18;11.27;;;9.00;99.90;;;;;;4938119;28;20112;-47
2024/03/15 06:39:32;;;;;;;12.35;10.32;;;9.00;99.90;;;;;;4944616;28;20072;-55
2024/03/15 06:41:58;;;;;;;11.07;9.85;;;9.10;99.90;;;;;;4966414;28;20481;-46
2024/03/15 06:44:35;;;;;;;12.75;10.18;;;9.10;99.90;;;;;;4936893;28;20041;-44
2024/03/15 06:49:47;;;;;;;12.77;9.77;;;9.10;99.90;;;;;;4978238;28;20582;-45
2024/03/15 06:52:34;;;;;;;14.35;10.00;;;9.20;99.90;;;;;;4937432;28;20030;-44
2024/03/15 06:55:04;;;;;;;15.18;10.60;;;9.20;99.90;;;;;;4935523;28;20185;-44
2024/03/15 06:57:31;;;;;;;11.13;9.57;;;9.20;99.90;;;;;;4932922;28;20030;-48
2024/03/15 06:59:57;;;;;;;11.00;9.40;;;9.20;99.90;;;;;;4962040;28;20022;-44
2024/03/15 07:02:23;;;;;;;22.63;15.27;;;9.30;99.90;;;;;;4926304;28;20045;-46
2024/03/15 07:04:50;;;;;;;23.95;15.85;;;9.30;99.90;;;;;;4962507;28;20025;-54
2024/03/15 07:07:22;;;;;;;26.33;17.98;;;9.30;99.90;;;;;;4954448;28;20084;-48
2024/03/15 07:09:48;;;;;;;18.05;14.05;;;9.30;99.90;;;;;;4928004;28;20025;-46
2024/03/15 07:12:16;;;;;;;21.75;14.48;;;9.40;99.90;;;;;;4960855;28;20494;-45
2024/03/15 07:14:42;;;;;;;20.77;13.32;;;9.40;99.90;;;;;;4929332;28;20033;-44
2024/03/15 07:17:11;;;;;;;14.95;11.63;;;9.50;99.90;;;;;;4927573;28;20041;-50
2024/03/15 07:19:37;;;;;;;17.83;11.63;;;9.50;99.90;;;;;;4971201;28;20036;-47
2024/03/15 07:22:03;;;;;;;16.88;12.70;;;9.60;99.90;;;;;;4920117;28;20030;-46
2024/03/15 07:24:30;;;;;;;17.27;10.50;;;9.70;99.90;;;;;;4924784;28;20410;-45
2024/03/15 07:26:55;;;;;;;13.38;10.80;;;9.70;99.90;;;;;;4952417;28;20117;-46
2024/03/15 07:29:21;;;;;;;13.93;11.40;;;9.90;99.90;;;;;;4923530;28;20516;-46
2024/03/15 07:31:50;;;;;;;17.45;10.73;;;9.90;99.90;;;;;;4963101;28;20692;-55
2024/03/15 07:34:16;;;;;;;13.27;10.68;;;10.00;99.90;;;;;;4946625;28;20450;-44
2024/03/15 07:36:42;;;;;;;12.90;10.80;;;10.10;99.90;;;;;;4910684;28;212472;-48
2024/03/15 07:39:08;;;;;;;14.73;10.93;;;10.20;99.90;;;;;;4953680;28;20044;-46
2024/03/15 07:41:34;;;;;;;14.10;11.48;;;10.20;99.90;;;;;;4915989;28;20038;-44
2024/03/15 07:44:03;;;;;;;15.38;12.98;;;10.30;99.90;;;;;;4916772;28;20038;-44
2024/03/15 07:46:29;;;;;;;17.15;14.65;;;10.40;99.90;;;;;;4968619;28;20026;-46
2024/03/15 07:48:56;;;;;;;21.98;18.65;;;10.60;99.90;;;;;;4921597;28;20461;-44
2024/03/15 07:51:23;;;;;;;17.65;14.70;;;10.60;99.90;;;;;;4944012;28;20582;-52
2024/03/15 07:53:49;;;;;;;13.68;10.38;;;10.80;99.90;;;;;;4935612;28;20076;-49
2024/03/15 07:56:14;;;;;;;13.07;10.18;;;11.00;99.90;;;;;;4913441;28;20161;-48
2024/03/15 07:58:41;;;;;;;10.35;9.20;;;11.00;99.90;;;;;;4968181;28;20037;-46
2024/03/15 08:01:08;;;;;;;14.00;10.55;;;11.10;99.90;;;;;;4914433;28;20055;-46
2024/03/15 08:03:36;;;;;;;13.18;9.48;;;11.30;99.90;;;;;;4913838;28;20045;-45
2024/03/15 08:06:05;;;;;;;11.38;9.32;;;11.40;99.90;;;;;;4947161;28;20401;-49
2024/03/15 08:08:31;;;;;;;9.93;8.85;;;11.50;99.90;;;;;;4913188;28;20036;-51
2024/03/15 08:10:57;;;;;;;12.63;9.20;;;11.70;99.90;;;;;;4920146;28;20029;-52
2024/03/15 08:13:25;;;;;;;9.55;8.45;;;11.80;99.90;;;;;;4961045;28;20026;-45
2024/03/15 08:15:55;;;;;;;11.00;9.05;;;11.90;99.90;;;;;;4909741;28;20106;-44
2024/03/15 08:18:20;;;;;;;11.02;8.15;;;12.00;99.90;;;;;;4946198;28;20390;-44
2024/03/15 08:20:47;;;;;;;14.45;8.85;;;12.10;99.90;;;;;;4910415;28;20034;-46
2024/03/15 08:23:13;;;;;;;14.55;8.23;;;12.30;99.90;;;;;;4931672;28;21337;-46
2024/03/15 08:25:41;;;;;;;11.18;8.55;;;12.40;99.90;;;;;;4964054;28;22413;-50
2024/03/15 08:28:09;;;;;;;10.75;8.32;;;12.60;99.90;;;;;;4906892;28;20030;-48
2024/03/15 08:30:34;;;;;;;10.63;8.68;;;12.70;99.90;;;;;;4907012;28;20148;-49
2024/03/15 08:33:02;;;;;;;10.57;8.73;;;12.90;99.90;;;;;;4951615;28;20102;-49
2024/03/15 08:35:27;;;;;;;9.82;8.57;;;13.20;99.90;;;;;;4898674;28;20021;-46
2024/03/15 08:37:53;;;;;;;13.65;8.10;;;13.30;99.90;;;;;;4931592;28;20026;-56
2024/03/15 08:40:18;;;;;;;12.05;8.65;;;13.50;99.90;;;;;;4934888;28;20394;-46
2024/03/15 08:42:45;;;;;;;10.98;7.85;;;13.70;99.90;;;;;;4900931;28;21605;-45
2024/03/15 08:45:13;;;;;;;10.60;8.00;;;13.90;99.90;;;;;;4944468;28;20517;-46
2024/03/15 08:47:39;;;;;;;11.63;8.02;;;14.10;99.90;;;;;;4897846;28;20025;-51
2024/03/15 08:50:08;;;;;;;9.85;7.00;;;14.10;99.90;;;;;;4903050;28;20018;-52
2024/03/15 08:52:34;;;;;;;10.20;7.15;;;14.10;99.90;;;;;;4960563;28;20100;-48
2024/03/15 08:54:59;;;;;;;10.40;7.15;;;14.10;99.90;;;;;;4893198;28;20121;-47
2024/03/15 08:57:25;;;;;;;9.68;6.90;;;14.00;99.90;;;;;;4913951;28;20494;-54
2024/03/15 08:59:51;;;;;;;9.32;7.28;;;13.90;99.90;;;;;;4930651;28;20030;-46
2024/03/15 09:02:17;;;;;;;11.70;7.05;;;13.80;99.90;;;;;;4888902;28;21881;-47
2024/03/15 09:04:42;;;;;;;7.93;6.85;;;13.80;99.90;;;;;;4954850;28;20018;-48
2024/03/15 09:07:08;;;;;;;10.10;7.25;;;13.70;99.90;;;;;;4891010;28;20154;-49
2024/03/15 09:09:34;;;;;;;11.52;6.53;;;13.70;99.90;;;;;;4893879;28;20052;-47
2024/03/15 09:11:59;;;;;;;9.63;7.30;;;13.60;99.90;;;;;;4937457;28;20072;-47
2024/03/15 09:14:25;;;;;;;8.75;7.32;;;13.50;99.90;;;;;;4884510;28;20030;-48
2024/03/15 09:16:51;;;;;;;9.77;7.22;;;13.40;99.90;;;;;;4926939;28;20038;-55
2024/03/15 09:19:20;;;;;;;8.35;7.45;;;13.30;99.90;;;;;;4916209;28;20036;-49
2024/03/15 09:21:48;;;;;;;8.32;7.40;;;13.20;99.90;;;;;;4917126;28;20041;-46
2024/03/15 09:24:14;;;;;;;8.55;6.88;;;13.10;99.90;;;;;;4943577;28;20033;-46
2024/03/15 09:26:40;;;;;;;10.52;7.53;;;13.10;99.90;;;;;;4890415;28;20610;-48
2024/03/15 09:29:06;;;;;;;11.25;7.55;;;13.00;99.90;;;;;;4883136;28;20027;-49
2024/03/15 09:31:35;;;;;;;10.57;7.65;;;13.10;99.90;;;;;;4943070;28;20018;-51
2024/03/15 09:34:01;;;;;;;13.20;7.78;;;13.00;99.90;;;;;;4883475;28;20021;-47
2024/03/15 09:36:28;;;;;;;7.97;7.18;;;12.90;99.90;;;;;;4913374;28;20087;-49
2024/03/15 09:38:55;;;;;;;9.90;7.93;;;12.90;99.90;;;;;;4937623;28;20068;-49
2024/03/15 09:41:22;;;;;;;9.05;7.05;;;12.80;99.90;;;;;;4887158;28;21723;-48
2024/03/15 09:43:48;;;;;;;11.98;7.70;;;12.80;99.90;;;;;;4946500;28;20076;-49
2024/03/15 09:46:18;;;;;;;11.43;7.90;;;12.70;99.90;;;;;;4880350;28;20040;-46
2024/03/15 09:48:45;;;;;;;12.45;8.30;;;12.60;99.90;;;;;;4882837;28;21485;-47
2024/03/15 09:51:14;;;;;;;10.40;8.60;;;12.60;99.90;;;;;;4946741;28;20026;-52
2024/03/15 09:53:40;;;;;;;10.73;8.52;;;12.60;99.90;;;;;;4882811;28;20160;-51
2024/03/15 09:56:14;;;;;;;10.80;8.57;;;12.60;99.90;;;;;;4897475;28;20108;-49
2024/03/15 09:58:59;;;;;;;11.00;7.95;;;12.70;99.90;;;;;;4939168;28;20099;-51
2024/03/15 10:01:25;;;;;;;12.15;8.90;;;12.70;99.90;;;;;;4918162;28;20036;-48
2024/03/15 10:03:51;;;;;;;14.30;9.60;;;12.60;99.90;;;;;;4868941;28;21030;-51
2024/03/15 10:06:19;;;;;;;13.38;9.32;;;12.60;99.90;;;;;;4928783;28;20030;-51
2024/03/15 10:08:44;;;;;;;11.70;7.38;;;12.70;99.90;;;;;;4877203;28;20029;-51
2024/03/15 10:11:10;;;;;;;9.88;8.45;;;12.70;99.90;;;;;;4869765;28;21685;-47
2024/03/15 10:13:35;;;;;;;10.43;7.72;;;12.70;99.90;;;;;;4936028;28;20560;-48
2024/03/15 10:16:04;;;;;;;7.80;7.00;;;12.80;99.90;;;;;;4867067;28;20560;-51
2024/03/15 10:18:34;;;;;;;11.48;7.78;;;12.80;99.90;;;;;;4880676;28;20041;-55
2024/03/15 10:20:59;;;;;;;9.82;7.28;;;12.80;99.90;;;;;;4916785;28;20077;-50
2024/03/15 10:23:25;;;;;;;9.00;8.00;;;12.90;99.90;;;;;;4875369;28;20559;-47
2024/03/15 10:25:52;;;;;;;9.90;6.85;;;13.00;99.90;;;;;;4916674;28;20119;-57
2024/03/15 10:28:20;;;;;;;9.40;7.40;;;13.00;99.90;;;;;;4879967;28;20077;-46
2024/03/15 10:30:47;;;;;;;10.70;8.52;;;13.00;99.90;;;;;;4935681;28;21592;-47
2024/03/15 10:33:13;;;;;;;10.00;8.85;;;13.10;99.90;;;;;;4979959;28;20062;-46
2024/03/15 10:35:39;;;;;;;9.57;7.60;;;13.10;99.90;;;;;;4939361;28;20286;-50
2024/03/15 10:38:05;;;;;;;9.80;8.65;;;13.10;99.90;;;;;;4933563;28;20026;-48
2024/03/15 10:40:33;;;;;;;9.40;8.15;;;13.10;99.90;;;;;;4918662;28;20048;-49
2024/03/15 10:43:00;;;;;;;9.88;8.52;;;13.10;99.90;;;;;;4919071;28;20445;-48
2024/03/15 10:45:27;;;;;;;13.25;8.52;;;13.10;99.90;;;;;;4959776;28;20040;-55
2024/03/15 10:47:54;;;;;;;9.45;8.05;;;13.00;99.90;;;;;;4950061;28;20026;-50
2024/03/15 10:50:24;;;;;;;9.43;7.70;;;13.00;99.90;;;;;;4933778;28;20461;-47
2024/03/15 10:52:52;;;;;;;10.23;7.50;;;13.10;99.90;;;;;;4915765;28;20033;-48
2024/03/15 10:55:28;;;;;;;13.02;8.50;;;13.10;99.90;;;;;;4912807;28;20030;-50
2024/03/15 10:57:57;;;;;;;11.27;9.43;;;13.10;99.90;;;;;;4916641;28;21515;-46
2024/03/15 11:00:26;;;;;;;10.50;9.00;;;13.10;99.90;;;;;;4973382;28;20650;-57
2024/03/15 11:02:54;;;;;;;11.20;8.57;;;13.10;99.90;;;;;;4944898;28;20027;-51
2024/03/15 11:05:26;;;;;;;12.52;7.97;;;13.10;99.90;;;;;;4935074;28;20502;-48
2024/03/15 11:08:10;;;;;;;14.85;8.30;;;13.10;99.90;;;;;;4912164;28;20033;-46
2024/03/15 11:10:36;;;;;;;11.02;8.85;;;13.20;99.90;;;;;;4924341;28;20029;-50
2024/03/15 11:13:04;;;;;;;11.98;8.77;;;13.30;99.90;;;;;;4912072;28;20390;-49
2024/03/15 11:15:37;;;;;;;9.52;8.38;;;13.30;99.90;;;;;;4981126;28;20102;-49
2024/03/15 11:18:04;;;;;;;8.88;7.63;;;13.40;99.90;;;;;;4977537;28;20029;-47
2024/03/15 11:20:54;;;;;;;9.50;8.10;;;13.50;99.90;;;;;;4999954;28;20588;-50
2024/03/15 11:23:22;;;;;;;10.23;8.27;;;13.60;99.90;;;;;;4999149;28;20118;-45
2024/03/15 11:26:07;;;;;;;9.07;7.80;;;13.60;99.90;;;;;;4969007;28;20367;-47
2024/03/15 11:28:37;;;;;;;12.60;8.93;;;13.60;99.90;;;;;;4969009;28;20433;-47
2024/03/15 11:31:15;;;;;;;11.30;8.68;;;13.70;99.90;;;;;;4975954;28;20033;-46
2024/03/15 11:33:40;;;;;;;10.10;8.77;;;13.70;99.90;;;;;;4965508;28;20047;-52
2024/03/15 11:36:10;;;;;;;10.45;9.38;;;13.70;99.90;;;;;;4977182;28;20495;-51
2024/03/15 11:38:36;;;;;;;10.50;8.73;;;13.60;99.90;;;;;;4996447;28;20514;-48
2024/03/15 11:41:02;;;;;;;8.80;7.90;;;13.60;99.90;;;;;;4964625;28;20077;-50
2024/03/15 11:43:29;;;;;;;9.20;7.85;;;13.60;99.90;;;;;;4963159;28;20548;-47
2024/03/15 11:45:55;;;;;;;8.95;7.55;;;13.70;99.90;;;;;;4979985;28;20108;-49
2024/03/15 11:48:23;;;;;;;9.13;8.18;;;13.70;99.90;;;;;;4959200;28;20027;-48
2024/03/15 11:50:52;;;;;;;9.80;8.13;;;13.70;99.90;;;;;;4980400;28;20112;-55
2024/03/15 11:53:19;;;;;;;9.82;8.82;;;13.70;99.90;;;;;;4993116;28;20037;-48
2024/03/15 11:55:46;;;;;;;10.10;8.38;;;13.70;99.90;;;;;;4972862;28;20401;-46
2024/03/15 11:58:16;;;;;;;9.02;8.10;;;13.70;99.90;;;;;;4973652;28;20040;-48
2024/03/15 12:00:45;;;;;;;13.18;9.27;;;13.70;99.90;;;;;;4952241;28;20049;-48
2024/03/15 12:03:11;;;;;;;10.50;9.43;;;13.70;99.90;;;;;;4959362;28;21281;-47
2024/03/15 12:05:38;;;;;;;13.23;9.00;;;13.60;99.90;;;;;;4989751;28;20030;-50
2024/03/15 12:08:09;;;;;;;12.98;10.05;;;13.60;99.90;;;;;;4967038;28;20129;-50
2024/03/15 12:10:36;;;;;;;11.57;8.80;;;13.60;99.90;;;;;;4956145;28;20030;-46
2024/03/15 12:13:02;;;;;;;11.45;9.20;;;13.70;99.90;;;;;;4974391;28;20748;-50
2024/03/15 12:15:31;;;;;;;10.95;9.07;;;13.70;99.90;;;;;;4957414;28;20026;-50
2024/03/15 12:17:59;;;;;;;9.48;8.55;;;13.80;99.90;;;;;;4958247;28;20040;-50
2024/03/15 12:20:26;;;;;;;11.38;8.90;;;13.90;99.90;;;;;;4986289;28;20509;-49
2024/03/15 12:22:52;;;;;;;8.45;7.50;;;14.00;99.90;;;;;;4959375;28;20133;-52
2024/03/15 12:25:18;;;;;;;10.93;8.05;;;14.10;99.90;;;;;;4966900;28;20401;-52
2024/03/15 12:27:44;;;;;;;9.52;8.55;;;14.20;99.90;;;;;;4948972;28;20037;-48
2024/03/15 12:30:13;;;;;;;8.77;7.90;;;14.20;99.90;;;;;;4953253;28;21478;-46
2024/03/15 12:32:38;;;;;;;12.32;8.07;;;14.30;99.90;;;;;;4985945;28;20030;-49
2024/03/15 12:35:05;;;;;;;8.43;7.43;;;14.30;99.90;;;;;;4946490;28;20149;-50
2024/03/15 12:37:32;;;;;;;7.88;7.05;;;14.40;99.90;;;;;;4947535;28;20473;-49
2024/03/15 12:39:58;;;;;;;9.02;7.50;;;14.40;99.90;;;;;;4966551;28;20134;-51
2024/03/15 12:42:25;;;;;;;9.52;7.10;;;14.40;99.90;;;;;;4947100;28;20504;-47
2024/03/15 12:44:51;;;;;;;10.27;6.88;;;14.30;99.90;;;;;;4972872;28;20125;-58
2024/03/15 12:47:17;;;;;;;7.35;6.65;;;14.30;99.90;;;;;;4960763;28;20030;-53